Home > Products > Valid Products > TAF

000
FTUS45 KRIW 231100
TAFRIW
TAF
KRIW 231120Z 2312/2412 28010KT P6SM SCT120
     FM231800 28025G35KT P6SM SCT100
     FM240200 26018KT P6SM FEW120 SCT250
     FM240900 25011KT P6SM SCT250=



000
FTUS45 KRIW 231100
TAFRKS
TAF
KRKS 231120Z 2312/2412 26018G30KT P6SM VCSH BKN020
     FM231400 27025G35KT P6SM FEW020 SCT080
     FM240200 27018KT P6SM SCT080
     FM240500 25011KT P6SM SCT080=



000
FTUS45 KRIW 231100
TAFBPI
TAF
KBPI 231120Z 2312/2412 28014KT P6SM BKN060
     FM231800 30022G32KT P6SM SCT045 BKN060
     FM240100 32010KT P6SM SCT080
     FM240600 VRB05KT P6SM SCT080=



000
FTUS45 KRIW 231100
TAFLND
TAF
KLND 231120Z 2312/2412 28011KT P6SM FEW120
     FM232000 28015G25KT P6SM SCT120
     FM240200 26011KT P6SM FEW120 SCT250=



000
FTUS45 KRIW 231100
TAFWRL
TAF
KWRL 231120Z 2312/2412 VRB05KT P6SM SCT120
     FM231400 33012G20KT P6SM FEW025 SCT050 BKN100
     FM232000 30010KT P6SM SCT100 BKN150
     FM240100 VRB06KT P6SM SCT120=



000
FTUS45 KRIW 231100
TAFCOD
TAF
KCOD 231120Z 2312/2412 34011KT P6SM SCT050 BKN100
     FM232000 26014G24KT P6SM FEW060 SCT090
     FM240900 20010KT P6SM SCT090
      AMD LTD TO CLD VIS AND WIND=



000
FTUS45 KRIW 231100
TAFJAC
TAF
KJAC 231120Z 2312/2412 18014G22KT P6SM -SHRA SCT025 BKN040
     FM231700 21020G30KT P6SM VCSH SCT030 BKN050
     FM240200 20012KT P6SM VCSH SCT025 BKN040
     FM240600 22008KT P6SM BKN050
      AMD LTD TO CLD VIS AND WIND=



000
FTUS45 KRIW 231100
TAFCPR
TAF
KCPR 231120Z 2312/2412 23018G28KT P6SM SCT080 BKN110
     FM231700 27018G30KT P6SM SCT070 BKN110
     FM240100 27013KT P6SM FEW070 SCT110
     FM240600 25010KT P6SM SKC=



000
FTUS45 KRIW 231000 AAA
TAFRKS
TAF AMD
KRKS 231004Z 2310/2406 26015G23KT P6SM VCSH BKN020
     FM231400 27026G36KT P6SM BKN080
     FM240200 27018KT P6SM SCT080
     FM240500 26011KT P6SM SCT080=



000
FTUS45 KRIW 230900 AAA
TAFJAC
TAF AMD
KJAC 230900Z 2309/2406 20011KT P6SM VCSH BKN040
     FM231700 21020G30KT P6SM VCSH BKN030
     FM240200 20012KT P6SM VCSH SCT025 BKN040
      AMD LTD TO CLD VIS AND WIND=



000
FTUS45 KRIW 230800 AAA
TAFBPI
TAF AMD
KBPI 230826Z 2308/2406 31010KT P6SM SCT060
     FM231400 29015G25KT P6SM SCT040 BKN060
     FM231800 30022G32KT P6SM VCSH SCT045 BKN060
     FM240100 30013KT P6SM BKN080
     FM240500 30008KT P6SM SCT080=



000
FTUS45 KRIW 230500
TAFCOD
TAF
KCOD 230520Z 2306/2406 25015G25KT P6SM VCSH SCT050 BKN080
     FM231400 35012G18KT P6SM VCSH SCT060 BKN080
     FM231800 26014G24KT P6SM FEW060 SCT090
      AMD LTD TO CLD VIS AND WIND=



000
FTUS45 KRIW 230500
TAFCPR
TAF
KCPR 230520Z 2306/2406 21020G30KT P6SM SCT100
     FM230800 23024G34KT P6SM VCSH SCT060 BKN080
     FM231200 24018G28KT P6SM SCT080 BKN110
     FM231700 27018G30KT P6SM SCT070 BKN110
     FM240100 27013KT P6SM FEW070 SCT110=



000
FTUS45 KRIW 230500
TAFJAC
TAF
KJAC 230520Z 2306/2406 19015G25KT 3SM -SN BKN024
     FM231000 20015KT P6SM VCSH SCT024 BKN040
     FM231700 21020G30KT P6SM VCSH BKN030
     FM240200 20012KT P6SM VCSH SCT025 BKN040
      AMD LTD TO CLD VIS AND WIND=



000
FTUS45 KRIW 230500
TAFRKS
TAF
KRKS 230520Z 2306/2406 25022G34KT P6SM VCSH SCT045 BKN060
     FM230900 26025G35KT P6SM SCT050 BKN080
     FM231400 27026G36KT P6SM BKN080
     FM240200 27018KT P6SM SCT080
     FM240500 26011KT P6SM SCT080=



000
FTUS45 KRIW 230500
TAFWRL
TAF
KWRL 230520Z 2306/2406 21010G20KT P6SM SCT070 BKN120
     FM231300 33012G20KT P6SM VCSH SCT060 BKN100
     FM232000 30012KT P6SM SCT060 BKN120
     FM240100 VRB06KT P6SM SCT120=



000
FTUS45 KRIW 230500
TAFBPI
TAF
KBPI 230520Z 2306/2406 31016G26KT P6SM VCSH SCT035 BKN060
      TEMPO 2306/2308 4SM -SHSN BKN025
     FM231300 29015G25KT P6SM SCT040 BKN060
     FM231800 30022G32KT P6SM VCSH SCT045 BKN060
     FM240100 30013KT P6SM BKN080
     FM240500 30008KT P6SM SCT080=



000
FTUS45 KRIW 230500
TAFLND
TAF
KLND 230520Z 2306/2406 23025G40KT P6SM VCSH SCT050 BKN070
     FM231000 26020G30KT P6SM SCT070 BKN100
     FM240100 26010KT P6SM SCT100=



000
FTUS45 KRIW 230500
TAFRIW
TAF
KRIW 230520Z 2306/2406 26020G30KT P6SM SCT080 BKN110
     FM231500 29025G35KT P6SM SCT070 BKN120
     FM240200 30018KT P6SM FEW080 SCT120=



000
FTUS45 KRIW 222300
TAFRIW
TAF
KRIW 222325Z 2300/2324 22022G32KT P6SM SCT070 BKN150
     FM230300 22015G25KT P6SM SCT070 BKN120
     FM230730 27025G35KT P6SM BKN100
     FM231100 27014G24KT P6SM SCT150
     FM231600 29025G35KT P6SM SCT070 BKN120=



000
FTUS45 KRIW 222300
TAFRKS
TAF
KRKS 222325Z 2300/2324 20025G35KT P6SM VCSH SCT060 BKN080
     FM230430 26026G36KT P6SM VCSH BKN070
     FM231200 26026G36KT P6SM BKN080=



000
FTUS45 KRIW 222300
TAFWRL
TAF
KWRL 222325Z 2300/2324 16016G26KT P6SM FEW070 BKN100
     FM230600 24014G24KT P6SM SCT070 BKN100
     FM230900 25011KT P6SM SCT100 BKN200
     FM231300 33012G20KT P6SM VCSH SCT060 BKN100=



000
FTUS45 KRIW 222300
TAFCOD
TAF
KCOD 222325Z 2300/2324 17014G24KT P6SM VCSH SCT070 BKN110
     FM230500 27018G30KT P6SM VCSH FEW060 BKN080
     FM231500 35012G18KT P6SM VCSH SCT060 BKN080
     FM231800 26014G22KT P6SM FEW060 SCT090
      AMD LTD TO CLD VIS AND WIND=



000
FTUS45 KRIW 222300
TAFCPR
TAF
KCPR 222325Z 2300/2324 21020G30KT P6SM VCSH SCT080 BKN100
     FM230300 21020G30KT P6SM SCT080 BKN120
     FM230900 25018G28KT P6SM SCT080 BKN120
     FM231500 25024G34KT P6SM SCT080 BKN120=



000
FTUS45 KRIW 222300
TAFBPI
TAF
KBPI 222325Z 2300/2324 22024G34KT P6SM VCSH BKN070
     FM230300 28015G25KT P6SM VCSH BKN060
     FM230800 28014KT P6SM SCT100
     FM231600 30022G32KT P6SM VCSH BKN060=



000
FTUS45 KRIW 222300
TAFLND
TAF
KLND 222325Z 2300/2324 21030G40KT P6SM VCSH SCT060 BKN090
     FM230700 26020G30KT P6SM SCT070 BKN100=



000
FTUS45 KRIW 222300
TAFJAC
TAF
KJAC 222325Z 2300/2324 20020G32KT P6SM VCTS SCT035 BKN050CB
     FM230200 21014G24KT 5SM SHRA BKN030
     FM230500 21014G22KT 3SM -SN BKN020
     FM231700 21020G30KT P6SM VCSH BKN030
      AMD LTD TO CLD VIS AND WIND=



000
FTUS45 KRIW 222000 AAA
TAFJAC
TAF AMD
KJAC 222050Z 2221/2318 21020G30KT P6SM VCTS BKN060CB
      TEMPO 2221/2224 6SM -TSRA BKN040CB
     FM230000 21020G32KT P6SM VCTS SCT035 BKN050CB
     FM230200 21014G24KT 5SM SHRA BKN030
     FM230500 21014G22KT 3SM -SN BKN020
     FM231700 21020G30KT P6SM VCSH BKN030
      AMD LTD TO CLD VIS AND WIND=



000
FTUS45 KRIW 221700
TAFJAC
TAF
KJAC 221725Z 2218/2318 17010KT P6SM SCT050 BKN070
     FM222000 18020G30KT P6SM VCSH BKN060
     FM230000 21020G32KT P6SM VCTS SCT035 BKN050CB
     FM230200 21014G24KT 5SM SHRA BKN030
     FM230500 21014G22KT 3SM -SN BKN020
     FM231700 21020G30KT P6SM VCSH BKN030
      AMD LTD TO CLD VIS AND WIND=



000
FTUS45 KRIW 221700
TAFRIW
TAF
KRIW 221725Z 2218/2318 VRB05KT P6SM SCT120 BKN200
     FM222000 21022G32KT P6SM SCT070 BKN150
     FM230300 21015G25KT P6SM SCT070 BKN120
     FM230730 27025G35KT P6SM BKN100
     FM231100 27014G24KT P6SM SCT150
     FM231600 29025G35KT P6SM SCT070 BKN120=



000
FTUS45 KRIW 221700
TAFRKS
TAF
KRKS 221725Z 2218/2318 17016G26KT P6SM BKN100
     FM221900 20025G35KT P6SM VCSH SCT060 BKN080
     FM230430 26026G36KT P6SM VCSH BKN070
     FM231200 26026G36KT P6SM BKN080=



000
FTUS45 KRIW 221700
TAFLND
TAF
KLND 221725Z 2218/2318 19012G18KT P6SM SCT080 BKN200
     FM222000 21024G34KT P6SM VCSH SCT060 BKN120
     FM230000 21030G40KT P6SM VCSH SCT060 BKN090
     FM230700 26020G30KT P6SM SCT070 BKN100=



000
FTUS45 KRIW 221700
TAFBPI
TAF
KBPI 221725Z 2218/2318 18012G18KT P6SM SCT070 BKN100
     FM222000 22024G34KT P6SM VCSH BKN070
     FM230300 28015G25KT P6SM VCSH BKN060
     FM230800 28014KT P6SM SCT100
     FM231600 30022G32KT P6SM VCSH BKN060=



000
FTUS45 KRIW 221700
TAFWRL
TAF
KWRL 221725Z 2218/2318 VRB05KT P6SM FEW100 BKN200
     FM222000 16016G26KT P6SM FEW070 BKN100
     FM230600 24014G24KT P6SM SCT070 BKN100
     FM230900 25011KT P6SM SCT100 BKN200
     FM231300 33012G20KT P6SM VCSH SCT060 BKN100=



000
FTUS45 KRIW 221700
TAFCPR
TAF
KCPR 221725Z 2218/2318 20014G22KT P6SM SCT080 BKN150
     FM222000 21024G34KT P6SM VCSH SCT080 BKN100
     FM230300 21020G30KT P6SM SCT080 BKN120
     FM230900 25018G28KT P6SM SCT080 BKN120
     FM231500 25024G34KT P6SM SCT080 BKN120=



000
FTUS45 KRIW 221700
TAFCOD
TAF
KCOD 221725Z 2218/2318 17014G20KT P6SM VCSH SCT070 BKN110
     FM230500 27018G30KT P6SM VCSH FEW060 BKN080
     FM231500 35012G18KT P6SM VCSH SCT060 BKN080
      AMD LTD TO CLD VIS AND WIND=



000
FTUS45 KRIW 221100
TAFCOD
TAF
KCOD 221134Z 2212/2312 25014G20KT P6SM BKN120
     FM221430 19007KT P6SM BKN120
     FM221800 17014G20KT P6SM VCSH SCT070 BKN110
     FM230500 27018G30KT P6SM VCSH FEW060 BKN080
      AMD LTD TO CLD VIS AND WIND=



000
FTUS45 KRIW 221100
TAFCPR
TAF
KCPR 221134Z 2212/2312 20008KT P6SM SCT100 BKN250
     FM221500 20014G22KT P6SM SCT080 BKN150
     FM222000 21024G34KT P6SM VCSH SCT080 BKN100
     FM230300 21020G30KT P6SM SCT080 BKN120
     FM230900 25018G28KT P6SM SCT080 BKN120=



000
FTUS45 KRIW 221100
TAFBPI
TAF
KBPI 221134Z 2212/2312 VRB06KT P6SM BKN120
     FM221700 18012G18KT P6SM SCT070 BKN100
     FM222000 22024G34KT P6SM VCSH BKN070
     FM230300 28015G25KT P6SM VCSH BKN060
     FM230800 28014KT P6SM SCT100=



000
FTUS45 KRIW 221100
TAFRIW
TAF
KRIW 221134Z 2212/2312 30008KT P6SM SCT100 BKN250
     FM221400 VRB05KT P6SM SCT120 BKN200
     FM222000 21022G32KT P6SM SCT120 BKN200
     FM230300 21015G25KT P6SM SCT080 BKN120
     FM230730 27020G30KT P6SM BKN100
     FM231100 27014G24KT P6SM SCT150=



000
FTUS45 KRIW 221100
TAFLND
TAF
KLND 221134Z 2212/2312 VRB05KT P6SM SCT110 BKN250
     FM221600 19012G18KT P6SM SCT080 BKN200
     FM222000 21024G34KT P6SM SCT080 BKN150
     FM230400 21015G25KT P6SM SCT080 BKN130
     FM230700 26020G30KT P6SM BKN100
     FM231000 27014KT P6SM SCT100 BKN200=



000
FTUS45 KRIW 221100
TAFJAC
TAF
KJAC 221134Z 2212/2312 35011KT P6SM -SHRA SCT030 OVC050
     FM221600 17010KT P6SM SCT050 BKN090
     FM222000 18020G30KT P6SM VCSH BKN060
     FM230000 21016G26KT P6SM VCSH SCT035 BKN050
     FM230200 21014G24KT 5SM -SHRA BKN030
     FM230500 21014G22KT 3SM -SN BKN020
      AMD LTD TO CLD VIS AND WIND=



000
FTUS45 KRIW 221100
TAFRKS
TAF
KRKS 221134Z 2212/2312 17010KT P6SM SCT100 BKN250
     FM221500 17016G26KT P6SM BKN100
     FM221900 20025G35KT P6SM VCSH SCT060 BKN080
     FM230400 25022G32KT P6SM VCSH BKN070
     FM230700 26020G30KT P6SM BKN080=



000
FTUS45 KRIW 221100
TAFWRL
TAF
KWRL 221134Z 2212/2312 VRB05KT P6SM FEW100 BKN200
     FM222000 16016G26KT P6SM FEW070 BKN100
     FM230600 24014G24KT P6SM SCT070 BKN100
     FM230900 25011KT P6SM SCT100 BKN200=



000
FTUS45 KRIW 220500
TAFJAC
TAF
KJAC 220523Z 2206/2306 20006KT P6SM VCSH SCT060 BKN080
     FM221600 17011KT P6SM BKN070
     FM221900 18020G30KT P6SM VCSH BKN060
     FM230000 21016G26KT P6SM VCSH SCT035 BKN050
     FM230200 21014G24KT 5SM -SHRA BKN030
     FM230500 21014G22KT 3SM -SN BKN020
      AMD LTD TO CLD VIS AND WIND=



000
FTUS45 KRIW 220500
TAFCOD
TAF
KCOD 220523Z 2206/2306 19007KT P6SM SCT110 BKN250
     FM221700 17012G20KT P6SM SCT070 BKN110
     FM222000 17020G30KT P6SM VCSH SCT070 BKN110
     FM230500 27018G30KT P6SM VCSH FEW060 BKN080
      AMD LTD TO CLD VIS AND WIND=



000
FTUS45 KRIW 220500
TAFBPI
TAF
KBPI 220523Z 2206/2306 VRB06KT P6SM SCT090 BKN250
     FM221400 20007KT P6SM SCT080 BKN200
     FM221700 18012G18KT P6SM SCT070 BKN100
     FM222000 22024G34KT P6SM VCSH BKN070
     FM230300 28015G25KT P6SM VCSH BKN060=



000
FTUS45 KRIW 220500
TAFRIW
TAF
KRIW 220523Z 2206/2306 15007KT P6SM FEW110 BKN250
     FM221100 20006KT P6SM SCT100 BKN250
     FM221600 15011KT P6SM SCT080 BKN150
     FM222000 21022G32KT P6SM SCT080 BKN150
     FM230300 21015G25KT P6SM SCT080 BKN120=



000
FTUS45 KRIW 220500
TAFRKS
TAF
KRKS 220523Z 2206/2306 18010KT P6SM SCT100 BKN250
     FM221000 17012G18KT P6SM SCT100 BKN250
     FM221500 17016G26KT P6SM BKN100
     FM221900 20025G35KT P6SM SCT060 BKN080
     FM230400 25022G32KT P6SM VCSH BKN070=



000
FTUS45 KRIW 220500
TAFLND
TAF
KLND 220523Z 2206/2306 VRB05KT P6SM SCT110 BKN250
     FM221600 19012G18KT P6SM SCT080 BKN200
     FM222000 21024G34KT P6SM SCT080 BKN150
     FM230300 21015G25KT P6SM SCT080 BKN130=



000
FTUS45 KRIW 220500
TAFCPR
TAF
KCPR 220523Z 2206/2306 VRB06KT P6SM BKN250
     FM220800 20008KT P6SM SCT100 BKN250
     FM221500 20014G22KT P6SM SCT080 BKN150
     FM222000 21024G34KT P6SM VCSH SCT080 BKN100
     FM230300 21020G30KT P6SM SCT080 BKN120=



000
FTUS45 KRIW 220500
TAFWRL
TAF
KWRL 220523Z 2206/2306 16007KT P6SM FEW100 BKN250
     FM222000 16016G26KT P6SM FEW070 BKN100=



000
FTUS45 KRIW 212300
TAFJAC
TAF
KJAC 212330Z 2200/2224 20009KT P6SM SCT060 BKN100
     FM220600 20007KT P6SM VCSH BKN060
     FM221600 15011KT P6SM BKN060
     FM221900 18020G30KT P6SM VCSH BKN060
      AMD LTD TO CLD VIS AND WIND=



000
FTUS45 KRIW 212300
TAFRKS
TAF
KRKS 212330Z 2200/2224 26012G20KT P6SM SCT090 BKN250
     FM220200 18008KT P6SM BKN100
     FM221000 17012G18KT P6SM SCT100
     FM221500 17016G26KT P6SM BKN100
     FM221900 20025G35KT P6SM SCT060 BKN080=



000
FTUS45 KRIW 212300
TAFBPI
TAF
KBPI 212330Z 2200/2224 28008KT P6SM SCT090 BKN250
     FM220500 17006KT P6SM BKN080
     FM220900 17006KT P6SM SCT050 BKN070
     FM221700 18012G18KT P6SM SCT070 BKN120
     FM222000 22024G34KT P6SM VCSH BKN070=



000
FTUS45 KRIW 212300
TAFCOD
TAF
KCOD 212330Z 2200/2224 12008KT P6SM FEW100 BKN250
     FM220500 18010KT P6SM BKN110
     FM221700 17012G20KT P6SM SCT070 BKN110
     FM222000 17020G30KT P6SM VCSH SCT070 BKN110
      AMD LTD TO CLD VIS AND WIND=



000
FTUS45 KRIW 212300
TAFCPR
TAF
KCPR 212330Z 2200/2224 14007KT P6SM SCT090
     FM220800 20008KT P6SM SCT100 BKN250
     FM221600 20014G22KT P6SM SCT080 BKN150
     FM222000 21024G34KT P6SM VCSH SCT080 BKN100=



000
FTUS45 KRIW 212300
TAFLND
TAF
KLND 212330Z 2200/2224 14006KT P6SM SCT250
     FM220200 20005KT P6SM BKN250
     FM220600 20006KT P6SM SCT100 BKN250
     FM221600 19012G18KT P6SM SCT080 BKN150
     FM222000 21024G34KT P6SM SCT080 BKN150=



000
FTUS45 KRIW 212300
TAFWRL
TAF
KWRL 212330Z 2200/2224 15007KT P6SM FEW100 SCT250
     FM220900 16007KT P6SM BKN100
     FM222000 16016G26KT P6SM FEW070 BKN100=



000
FTUS45 KRIW 212300
TAFRIW
TAF
KRIW 212330Z 2200/2224 14006KT P6SM SCT250
     FM220200 21007KT P6SM BKN250
     FM220600 21006KT P6SM SCT100 BKN250
     FM221600 15011KT P6SM SCT080 BKN150
     FM222000 21022G32KT P6SM SCT080 BKN150=



000
FTUS45 KRIW 211700
TAFRKS
TAF
KRKS 211727Z 2118/2218 27006KT P6SM BKN250
     FM211900 26012G20KT P6SM SCT090 BKN250
     FM220200 18008KT P6SM BKN100
     FM221000 17012G18KT P6SM SCT100
     FM221500 17016G26KT P6SM BKN100=



000
FTUS45 KRIW 211700
TAFCPR
TAF
KCPR 211727Z 2118/2218 11007KT P6SM FEW080 BKN250
     FM212000 14007KT P6SM SCT090
     FM220800 20008KT P6SM SCT100 BKN250
     FM221600 20014G22KT P6SM SCT080 BKN150=



000
FTUS45 KRIW 211700
TAFCOD
TAF
KCOD 211727Z 2118/2218 03006KT P6SM FEW110 BKN250
     FM211900 15008KT P6SM FEW100 BKN250
     FM220500 18010KT P6SM BKN110
     FM221700 17012G20KT P6SM SCT070 BKN110
      AMD LTD TO CLD VIS AND WIND=



000
FTUS45 KRIW 211700
TAFWRL
TAF
KWRL 211727Z 2118/2218 15007KT P6SM FEW100 SCT250
     FM220900 16007KT P6SM BKN100=



000
FTUS45 KRIW 211700
TAFJAC
TAF
KJAC 211727Z 2118/2218 18010KT P6SM SCT060 BKN250
     FM220000 20009KT P6SM SCT060 BKN100
     FM220600 20007KT P6SM VCSH BKN060
     FM221600 15011KT P6SM BKN060
      AMD LTD TO CLD VIS AND WIND=



000
FTUS45 KRIW 211700
TAFLND
TAF
KLND 211727Z 2118/2218 14006KT P6SM SCT250
     FM220200 20005KT P6SM BKN250
     FM220600 20006KT P6SM SCT100 BKN250
     FM221600 19012G18KT P6SM SCT080 BKN150=



000
FTUS45 KRIW 211700
TAFRIW
TAF
KRIW 211727Z 2118/2218 11006KT P6SM BKN250
     FM212000 17009KT P6SM SCT250
     FM220200 21007KT P6SM BKN250
     FM220600 21006KT P6SM SCT100 BKN250
     FM221600 15011KT P6SM SCT080 BKN150=



000
FTUS45 KRIW 211700
TAFBPI
TAF
KBPI 211727Z 2118/2218 VRB06KT P6SM SCT250
     FM212100 18008KT P6SM SCT090 BKN250
     FM220500 17006KT P6SM BKN080
     FM220900 17006KT P6SM SCT050 BKN070
     FM221700 18012G18KT P6SM SCT070 BKN120=



000
FTUS45 KRIW 211100
TAFJAC
TAF
KJAC 211123Z 2112/2212 VRB04KT P6SM SCT250
     FM211700 20010KT P6SM SCT060 BKN250
     FM220000 20009KT P6SM SCT060 BKN100
     FM220600 20007KT P6SM VCSH BKN060
      AMD LTD TO CLD VIS AND WIND=



000
FTUS45 KRIW 211100
TAFCOD
TAF
KCOD 211123Z 2112/2212 VRB05KT P6SM SCT250
     FM211600 15008KT P6SM FEW100 BKN250
     FM220500 18010KT P6SM BKN110
      AMD LTD TO CLD VIS AND WIND=



000
FTUS45 KRIW 211100
TAFLND
TAF
KLND 211123Z 2112/2212 VRB05KT P6SM SCT250
     FM211600 14006KT P6SM SCT250
     FM220200 20005KT P6SM BKN250
     FM220600 20006KT P6SM SCT100 BKN250=



000
FTUS45 KRIW 211100
TAFRIW
TAF
KRIW 211123Z 2112/2212 11006KT P6SM SCT250
     FM211800 17009KT P6SM SCT250
     FM220200 21007KT P6SM BKN250
     FM220600 21006KT P6SM SCT100 BKN250=



000
FTUS45 KRIW 211100
TAFWRL
TAF
KWRL 211123Z 2112/2212 14006KT P6SM BKN090
     FM211600 15007KT P6SM FEW100 SCT250
     FM220900 16007KT P6SM BKN100=



000
FTUS45 KRIW 211100
TAFRKS
TAF
KRKS 211123Z 2112/2212 VRB05KT P6SM SCT250
     FM211900 26012G20KT P6SM SCT090 BKN250
     FM220200 18008KT P6SM BKN100
     FM221000 17008KT P6SM SCT100=



000
FTUS45 KRIW 211100
TAFCPR
TAF
KCPR 211123Z 2112/2212 VRB05KT P6SM BKN070
     FM211600 10007KT P6SM FEW080 BKN250
     FM212000 14007KT P6SM SCT090
     FM220800 20008KT P6SM SCT100 BKN250=



000
FTUS45 KRIW 211100
TAFBPI
TAF
KBPI 211123Z 2112/2212 VRB06KT P6SM SCT250
     FM212100 18008KT P6SM SCT090 BKN250
     FM220500 17006KT P6SM BKN080
     FM220900 17006KT P6SM SCT050 BKN070=



000
FTUS45 KRIW 210500
TAFRKS
TAF
KRKS 210526Z 2106/2206 33006KT P6SM SCT250
     FM210730 06010KT P6SM SCT250
     FM211500 VRB04KT P6SM SCT250
     FM211900 26012G20KT P6SM SCT090 BKN250
     FM220200 18008KT P6SM BKN100=



000
FTUS45 KRIW 210500
TAFBPI
TAF
KBPI 210526Z 2106/2206 34007KT P6SM SCT250
     FM211400 16006KT P6SM SCT250
     FM212100 18008KT P6SM SCT090 BKN250
     FM220500 17006KT P6SM BKN080=



000
FTUS45 KRIW 210500
TAFCPR
TAF
KCPR 210526Z 2106/2206 06007KT P6SM SCT250
     FM211200 10007KT P6SM SCT250
     FM212000 14007KT P6SM SCT090 BKN250=



000
FTUS45 KRIW 210500
TAFCOD
TAF
KCOD 210526Z 2106/2206 VRB05KT P6SM SCT250
     FM211600 15008KT P6SM FEW100 BKN250
     FM220500 18010KT P6SM BKN110
      AMD LTD TO CLD VIS AND WIND=



000
FTUS45 KRIW 210500
TAFRIW
TAF
KRIW 210526Z 2106/2206 09010KT P6SM SCT250
     FM211200 11007KT P6SM SCT250
     FM211800 17009KT P6SM SCT250
     FM220200 21007KT P6SM BKN250=



000
FTUS45 KRIW 210500
TAFWRL
TAF
KWRL 210526Z 2106/2206 VRB05KT P6SM SCT250
     FM212000 17007KT P6SM SCT090 BKN250=



000
FTUS45 KRIW 210500
TAFLND
TAF
KLND 210526Z 2106/2206 29006KT P6SM SCT250
     FM211100 VRB05KT P6SM SCT250
     FM211600 14006KT P6SM SCT250
     FM220200 20005KT P6SM BKN250=



000
FTUS45 KRIW 210500
TAFJAC
TAF
KJAC 210526Z 2106/2206 VRB04KT P6SM SCT250
     FM211700 20010KT P6SM SCT060 BKN250
     FM220000 20009KT P6SM SCT060 BKN100
      AMD LTD TO CLD VIS AND WIND=



000
FTUS45 KRIW 202300
TAFCPR
TAF
KCPR 202329Z 2100/2124 36011KT P6SM SCT090
     FM210300 05009KT P6SM FEW090 SCT250
     FM210900 08009KT P6SM SCT250
     FM211500 14006KT P6SM SCT250
     FM211800 21009KT P6SM SCT070 BKN200=



000
FTUS45 KRIW 202300
TAFLND
TAF
KLND 202329Z 2100/2124 30011KT P6SM FEW110 SCT250
     FM210200 36008KT P6SM SCT250
     FM210600 VRB05KT P6SM SCT250=



000
FTUS45 KRIW 202300
TAFRIW
TAF
KRIW 202329Z 2100/2124 33014G22KT P6SM SCT250
     FM210100 01015G25KT P6SM SCT250
     FM210300 08008KT P6SM SCT250
     FM211800 12006KT P6SM SCT090=



000
FTUS45 KRIW 202300
TAFCOD
TAF
KCOD 202329Z 2100/2124 02010KT P6SM SCT250
     FM210100 VRB06KT P6SM FEW250
     FM211500 16008KT P6SM SCT070 BKN200
      AMD LTD TO CLD VIS AND WIND=



000
FTUS45 KRIW 202300
TAFBPI
TAF
KBPI 202329Z 2100/2124 35010KT P6SM SCT250
     FM211200 16005KT P6SM SCT090 BKN200
     FM211800 23008KT P6SM SCT090 BKN200=



000
FTUS45 KRIW 202300
TAFJAC
TAF
KJAC 202329Z 2100/2124 24010G20KT P6SM FEW080
     FM210100 19006KT P6SM FEW080
     FM210500 36005KT P6SM FEW250
     FM211700 19009KT P6SM SCT060 BKN150
      AMD LTD TO CLD VIS AND WIND=



000
FTUS45 KRIW 202300
TAFRKS
TAF
KRKS 202329Z 2100/2124 30013G23KT P6SM SCT090
     FM210100 25010KT P6SM SCT100
     FM210500 06008KT P6SM FEW110
     FM211500 VRB04KT P6SM SCT200
     FM211800 26012G22KT P6SM SCT090 BKN200=



000
FTUS45 KRIW 202300
TAFWRL
TAF
KWRL 202329Z 2100/2124 35012KT P6SM FEW100 SCT250
     FM210100 VRB05KT P6SM FEW250
     FM211500 17006KT P6SM SCT090 BKN200=



000
FTUS45 KRIW 202100 AAB
TAFCPR
TAF AMD
KCPR 202122Z 2021/2118 36014G24KT P6SM VCSH SCT080 BKN150
     FM210000 02012KT P6SM VCSH BKN080
     FM210300 05009KT P6SM FEW090 SCT250
     FM210900 08009KT P6SM SCT250
     FM211500 14006KT P6SM SCT250=



000
FTUS45 KRIW 202100 AAB
TAFBPI
TAF AMD
KBPI 202121Z 2021/2118 35010G20KT P6SM SCT080
     FM210200 35006KT P6SM FEW250
     FM211200 16005KT P6SM SCT090 BKN200=



000
FTUS45 KRIW 202000 AAA
TAFRIW
TAF AMD
KRIW 202035Z 2021/2118 30011KT P6SM SCT090 BKN250
     FM202200 30015G25KT P6SM FEW120 SCT250
     FM210000 36012G22KT P6SM SCT250
     FM210300 04010KT P6SM SCT250
     FM210600 08008KT P6SM SCT250=



000
FTUS45 KRIW 202000 AAA
TAFLND
TAF AMD
KLND 202034Z 2021/2118 30013G23KT P6SM SCT120 BKN250
     FM202300 30009KT P6SM FEW120 SCT250
     FM210200 36008KT P6SM SCT250
     FM210600 VRB05KT P6SM SCT250=



000
FTUS45 KRIW 201800 AAA
TAFCPR
TAF AMD
KCPR 201835Z 2019/2118 26012G22KT P6SM BKN250
     FM202000 36011KT P6SM VCSH SCT080 BKN150
     FM210000 02012KT P6SM VCSH BKN080
     FM210300 05009KT P6SM FEW090 SCT250
     FM210900 08009KT P6SM SCT250
     FM211500 14006KT P6SM SCT250=



000
FTUS45 KRIW 201800 AAA
TAFCOD
TAF AMD
KCOD 201833Z 2019/2118 01010G20KT P6SM SCT250
     FM210100 VRB06KT P6SM FEW250
     FM211500 16008KT P6SM SCT070 BKN200
      AMD LTD TO CLD VIS AND WIND=



000
FTUS45 KRIW 201800 AAA
TAFBPI
TAF AMD
KBPI 201831Z 2019/2118 30010G20KT P6SM SCT080
     FM210200 35006KT P6SM FEW250
     FM211200 16005KT P6SM SCT090 BKN200=



000
FTUS45 KRIW 201700
TAFJAC
TAF
KJAC 201721Z 2018/2118 23010G20KT P6SM SCT070 SCT100
     FM210100 19006KT P6SM FEW070
     FM210500 36005KT P6SM FEW250
     FM211700 19009KT P6SM SCT060 BKN150
      AMD LTD TO CLD VIS AND WIND=



000
FTUS45 KRIW 201700
TAFLND
TAF
KLND 201721Z 2018/2118 VRB06KT P6SM SCT120 BKN250
     FM202200 30009KT P6SM FEW120 SCT250
     FM210200 36008KT P6SM SCT250
     FM210600 VRB05KT P6SM SCT250=



000
FTUS45 KRIW 201700
TAFRIW
TAF
KRIW 201721Z 2018/2118 VRB04KT P6SM SCT120 BKN250
     FM202100 30011KT P6SM FEW120 SCT250
     FM210000 36012G22KT P6SM SCT250
     FM210300 04010KT P6SM SCT250
     FM210600 08008KT P6SM SCT250=



000
FTUS45 KRIW 201700
TAFWRL
TAF
KWRL 201721Z 2018/2118 VRB04KT P6SM SCT090 BKN250
     FM202100 34010KT P6SM FEW100 SCT250
     FM210100 VRB05KT P6SM FEW250
     FM211500 17006KT P6SM SCT090 BKN200=



000
FTUS45 KRIW 201700
TAFCPR
TAF
KCPR 201721Z 2018/2118 22013KT P6SM BKN250
     FM202100 36011KT P6SM VCSH SCT080 BKN150
     FM210000 02012KT P6SM VCSH BKN080
     FM210300 05009KT P6SM FEW090 SCT250
     FM210900 08009KT P6SM SCT250
     FM211500 14006KT P6SM SCT250=



000
FTUS45 KRIW 201700
TAFRKS
TAF
KRKS 201721Z 2018/2118 27015G25KT P6SM SCT090
     FM210100 25010KT P6SM SCT100
     FM210500 06008KT P6SM FEW110
     FM211500 VRB04KT P6SM SCT200=



000
FTUS45 KRIW 201700
TAFBPI
TAF
KBPI 201721Z 2018/2118 VRB04KT P6SM FEW120 BKN250
     FM202000 30010KT P6SM SCT080
     FM210200 35006KT P6SM FEW250
     FM211200 16005KT P6SM SCT090 BKN200=



000
FTUS45 KRIW 201700
TAFCOD
TAF
KCOD 201721Z 2018/2118 01010KT P6SM SCT250
     FM202000 01010KT P6SM FEW100 SCT250
     FM210100 VRB06KT P6SM FEW250
     FM211500 16008KT P6SM SCT070 BKN200
      AMD LTD TO CLD VIS AND WIND=



    US Dept of Commerce
    National Oceanic and Atmospheric Administration
    National Weather Service
    1325 East West Highway
    Silver Spring, MD 20910
    Page Author: NWS Internet Services Team
Disclaimer
Information Quality
Credits
Glossary
Privacy Policy
Freedom of Information Act (FOIA)
About Us
Career Opportunities